createdAt,value
2023-06-30T00:00:44.394Z,83.80
2023-06-30T00:03:30.374Z,83.30
2023-06-30T00:06:16.712Z,84.90
2023-06-30T00:09:02.075Z,82.20
2023-06-30T00:11:51.222Z,82.80
2023-06-30T00:14:36.621Z,81.40
2023-06-30T00:17:23.483Z,82.60
2023-06-30T00:20:10.426Z,81.50
2023-06-30T00:22:56.146Z,82.70
2023-06-30T00:25:41.501Z,82.50
2023-06-30T00:28:26.990Z,83.10
2023-06-30T00:31:13.051Z,82.00
2023-06-30T00:33:59.191Z,81.00
2023-06-30T00:36:44.989Z,82.80
2023-06-30T00:39:30.336Z,82.60
2023-06-30T00:42:16.539Z,80.10
2023-06-30T00:45:02.570Z,81.60
2023-06-30T00:47:48.371Z,83.10
2023-06-30T00:50:34.727Z,80.80
2023-06-30T00:53:20.395Z,85.90
2023-06-30T00:56:06.078Z,84.30
2023-06-30T00:58:51.563Z,83.70
2023-06-30T01:02:01.486Z,80.10
2023-06-30T01:05:09.564Z,98.40
2023-06-30T01:08:24.393Z,99.90
2023-06-30T01:11:10.920Z,89.60
2023-06-30T01:13:59.476Z,84.00
2023-06-30T01:16:46.482Z,85.50
2023-06-30T01:19:43.214Z,81.90
2023-06-30T01:22:45.218Z,92.60
2023-06-30T01:25:31.206Z,90.60
2023-06-30T01:28:17.851Z,83.40
2023-06-30T01:31:03.785Z,81.30
2023-06-30T01:33:49.327Z,85.70
2023-06-30T01:36:35.211Z,83.80
2023-06-30T01:39:20.598Z,86.50
2023-06-30T01:42:07.216Z,82.70
2023-06-30T01:44:53.531Z,82.80
2023-06-30T01:47:39.162Z,82.20
2023-06-30T01:50:26.619Z,82.60
2023-06-30T01:53:12.083Z,85.40
2023-06-30T01:55:57.879Z,86.20
2023-06-30T01:58:43.370Z,82.70
2023-06-30T02:01:28.879Z,86.90
2023-06-30T02:04:14.778Z,84.50
2023-06-30T02:07:00.639Z,84.70
2023-06-30T02:09:48.625Z,84.70
2023-06-30T02:12:35.089Z,84.70
2023-06-30T02:15:21.267Z,84.10
2023-06-30T02:18:06.669Z,80.90
2023-06-30T02:20:52.398Z,83.90
2023-06-30T02:23:38.030Z,85.00
2023-06-30T02:26:24.008Z,84.90
2023-06-30T02:29:09.436Z,83.90
2023-06-30T02:31:54.771Z,84.00
2023-06-30T02:34:40.525Z,82.40
2023-06-30T02:37:25.921Z,82.60
2023-06-30T02:40:11.867Z,86.50
2023-06-30T02:42:57.470Z,92.30
2023-06-30T02:45:43.325Z,84.60
2023-06-30T02:48:29.220Z,83.30
2023-06-30T02:51:14.558Z,87.60
2023-06-30T02:54:00.046Z,85.40
2023-06-30T02:56:45.593Z,84.40
2023-06-30T02:59:30.862Z,82.10
2023-06-30T03:02:16.614Z,83.00
2023-06-30T03:05:02.517Z,86.00
2023-06-30T03:07:48.143Z,87.10
2023-06-30T03:10:33.555Z,86.20
2023-06-30T03:13:18.814Z,86.80
2023-06-30T03:16:05.546Z,87.70
2023-06-30T03:18:50.886Z,87.60
2023-06-30T03:21:36.332Z,84.70
2023-06-30T03:24:21.939Z,87.00
2023-06-30T03:27:07.689Z,82.90
2023-06-30T03:29:53.481Z,81.60
2023-06-30T03:32:38.957Z,82.70
2023-06-30T03:35:24.988Z,86.90
2023-06-30T03:38:10.432Z,83.00
2023-06-30T03:40:55.822Z,85.00
2023-06-30T03:43:41.199Z,83.10
2023-06-30T03:46:27.166Z,80.70
2023-06-30T03:49:12.859Z,79.90
2023-06-30T03:51:58.414Z,84.00
2023-06-30T03:54:43.957Z,81.30
2023-06-30T03:57:29.954Z,80.90
2023-06-30T04:00:18.774Z,79.80
2023-06-30T04:03:04.381Z,80.00
2023-06-30T04:05:50.178Z,85.30
2023-06-30T04:08:35.540Z,80.90
2023-06-30T04:11:20.794Z,78.40
2023-06-30T04:14:06.244Z,75.50
2023-06-30T04:16:52.474Z,73.90
2023-06-30T04:19:37.908Z,73.40
2023-06-30T04:22:23.149Z,76.60
2023-06-30T04:25:08.986Z,80.90
2023-06-30T04:27:54.739Z,81.30
2023-06-30T04:30:40.227Z,83.80
2023-06-30T04:33:25.888Z,85.30
2023-06-30T04:36:11.259Z,84.30
2023-06-30T04:38:56.809Z,90.70
2023-06-30T04:41:42.193Z,87.10
2023-06-30T04:44:27.596Z,85.40
2023-06-30T04:47:13.076Z,84.20
2023-06-30T04:49:58.466Z,85.10
2023-06-30T04:52:44.569Z,85.00
2023-06-30T04:55:30.077Z,84.60
2023-06-30T04:58:15.300Z,86.80
2023-06-30T05:01:00.675Z,84.80
2023-06-30T05:03:45.992Z,84.30
2023-06-30T05:06:31.879Z,85.40
2023-06-30T05:09:17.278Z,84.20
2023-06-30T05:12:02.707Z,83.70
2023-06-30T05:14:48.118Z,83.30
2023-06-30T05:17:34.157Z,84.60
2023-06-30T05:20:19.976Z,81.20
2023-06-30T05:23:05.269Z,82.40
2023-06-30T05:25:50.824Z,81.20
2023-06-30T05:28:36.459Z,81.30
2023-06-30T05:31:21.688Z,81.80
2023-06-30T05:34:07.235Z,81.10
2023-06-30T05:36:52.560Z,80.00
2023-06-30T05:39:37.954Z,80.70
2023-06-30T05:42:23.470Z,83.10
2023-06-30T05:45:09.428Z,80.90
2023-06-30T05:47:54.901Z,79.00
2023-06-30T05:50:42.312Z,78.30
2023-06-30T05:53:28.008Z,80.10
2023-06-30T05:56:13.458Z,80.30
2023-06-30T05:58:59.741Z,82.80
2023-06-30T06:01:45.375Z,81.50
2023-06-30T06:04:31.050Z,81.40
2023-06-30T06:07:16.799Z,82.60
2023-06-30T06:10:02.686Z,81.20
2023-06-30T06:12:52.046Z,80.70
2023-06-30T06:15:37.479Z,82.50
2023-06-30T06:18:23.332Z,82.20
2023-06-30T06:21:08.510Z,82.80
2023-06-30T06:23:57.632Z,81.10
2023-06-30T06:26:43.702Z,80.70
2023-06-30T06:29:29.251Z,82.20
2023-06-30T06:32:14.610Z,81.80
2023-06-30T06:35:00.013Z,83.40
2023-06-30T06:37:45.409Z,82.70
2023-06-30T06:40:31.191Z,83.20
2023-06-30T06:43:16.511Z,80.80
2023-06-30T06:46:01.895Z,81.00
2023-06-30T06:48:47.736Z,80.90
2023-06-30T06:51:33.423Z,80.20
2023-06-30T06:54:18.915Z,78.30
2023-06-30T06:57:04.500Z,76.30
2023-06-30T06:59:49.897Z,76.50
2023-06-30T07:02:35.112Z,77.20
2023-06-30T07:05:20.545Z,78.60
2023-06-30T07:08:06.046Z,77.60
2023-06-30T07:10:52.403Z,77.80
2023-06-30T07:13:38.193Z,76.60
2023-06-30T07:16:23.977Z,77.20
2023-06-30T07:19:09.874Z,78.90
2023-06-30T07:21:55.795Z,77.30
2023-06-30T07:24:43.691Z,77.40
2023-06-30T07:27:30.604Z,78.60
2023-06-30T07:30:16.745Z,76.30
2023-06-30T07:33:02.785Z,75.30
2023-06-30T07:35:48.941Z,77.20
2023-06-30T07:38:34.604Z,76.60
2023-06-30T07:41:20.011Z,76.10
2023-06-30T07:44:06.164Z,75.90
2023-06-30T07:46:51.601Z,74.60
2023-06-30T07:49:36.862Z,74.80
2023-06-30T07:52:22.335Z,74.20
2023-06-30T07:55:08.001Z,73.20
2023-06-30T07:57:53.415Z,73.00
2023-06-30T08:00:39.022Z,72.70
2023-06-30T08:03:25.130Z,73.00
2023-06-30T08:06:11.095Z,72.00
2023-06-30T08:08:58.671Z,71.50
2023-06-30T08:11:44.600Z,71.00
2023-06-30T08:14:30.051Z,70.60
2023-06-30T08:17:21.801Z,70.40
2023-06-30T08:20:19.253Z,70.50
2023-06-30T08:23:05.557Z,70.70
2023-06-30T08:25:51.184Z,70.70
2023-06-30T08:28:36.657Z,71.50
2023-06-30T08:31:22.276Z,71.00
2023-06-30T08:34:08.095Z,70.80
2023-06-30T08:36:55.563Z,69.80
2023-06-30T08:39:41.186Z,69.80
2023-06-30T08:42:30.010Z,68.90
2023-06-30T08:45:16.284Z,69.30
2023-06-30T08:48:06.025Z,67.90
2023-06-30T08:50:53.211Z,68.10
2023-06-30T08:53:39.050Z,67.40
2023-06-30T08:56:26.861Z,67.50
2023-06-30T08:59:13.071Z,66.90
2023-06-30T09:01:58.806Z,66.20
2023-06-30T09:04:44.828Z,66.00
2023-06-30T09:07:46.783Z,65.90
2023-06-30T09:10:33.906Z,65.20
2023-06-30T09:13:20.729Z,65.20
2023-06-30T09:16:08.313Z,64.80
2023-06-30T09:18:54.346Z,64.20
2023-06-30T09:21:40.299Z,64.40
2023-06-30T09:24:26.578Z,64.90
2023-06-30T09:27:12.510Z,64.80
2023-06-30T09:29:57.987Z,64.40
2023-06-30T09:32:44.548Z,63.80
2023-06-30T09:35:47.257Z,63.70
2023-06-30T09:38:33.607Z,62.90
2023-06-30T09:41:22.912Z,63.30
2023-06-30T09:44:15.400Z,63.20
2023-06-30T09:47:00.748Z,62.50
2023-06-30T09:49:46.909Z,63.80
2023-06-30T09:52:33.153Z,63.40
2023-06-30T09:55:19.046Z,63.40
2023-06-30T09:58:04.283Z,62.40
2023-06-30T10:00:51.827Z,63.10
2023-06-30T10:03:57.741Z,62.90
2023-06-30T10:06:43.372Z,58.10
2023-06-30T10:09:30.132Z,62.80
2023-06-30T10:12:17.821Z,63.10
2023-06-30T10:15:04.389Z,62.60
2023-06-30T10:17:50.346Z,60.30
2023-06-30T10:20:46.927Z,62.50
2023-06-30T10:23:35.969Z,62.50
2023-06-30T10:26:23.215Z,61.00
2023-06-30T10:29:09.088Z,61.50
2023-06-30T10:34:46.009Z,61.70
2023-06-30T10:37:32.078Z,61.60
2023-06-30T10:40:30.668Z,61.00
2023-06-30T10:43:18.422Z,54.80
2023-06-30T10:46:07.171Z,62.00
2023-06-30T10:48:58.342Z,62.10
2023-06-30T10:51:55.804Z,60.70
2023-06-30T10:54:49.639Z,59.60
2023-06-30T10:57:38.294Z,60.20
2023-06-30T11:00:27.608Z,63.70
2023-06-30T11:03:13.394Z,65.50
2023-06-30T11:06:19.392Z,71.60
2023-06-30T11:09:10.685Z,74.50
2023-06-30T11:11:56.647Z,77.80
2023-06-30T11:15:02.235Z,76.60
2023-06-30T11:17:53.366Z,77.60
2023-06-30T11:20:39.936Z,70.90
2023-06-30T11:23:41.996Z,65.10
2023-06-30T11:26:28.019Z,61.50
2023-06-30T11:29:13.508Z,60.30
2023-06-30T11:31:58.924Z,59.30
2023-06-30T11:34:45.651Z,60.20
2023-06-30T11:37:31.017Z,61.20
2023-06-30T11:40:17.040Z,61.40
2023-06-30T11:43:02.993Z,60.90
2023-06-30T11:46:02.483Z,60.10
2023-06-30T11:48:52.128Z,55.50
2023-06-30T11:51:37.708Z,64.90
2023-06-30T11:54:31.431Z,63.90
2023-06-30T11:57:17.357Z,50.60
2023-06-30T12:00:23.997Z,63.80
2023-06-30T12:03:09.760Z,50.90
2023-06-30T12:05:58.846Z,66.60
2023-06-30T12:08:44.702Z,61.50
2023-06-30T12:11:30.913Z,43.20
2023-06-30T12:14:17.905Z,61.80
2023-06-30T12:17:04.709Z,61.50
2023-06-30T12:19:51.961Z,63.80
2023-06-30T12:22:43.932Z,61.60
2023-06-30T12:25:34.510Z,52.60
2023-06-30T12:28:20.405Z,57.00
2023-06-30T12:31:06.392Z,62.50
2023-06-30T12:33:54.876Z,60.40
2023-06-30T12:36:43.554Z,56.90
2023-06-30T12:39:29.966Z,58.10
2023-06-30T12:42:15.557Z,60.60
2023-06-30T12:45:01.243Z,66.40
2023-06-30T12:47:46.510Z,65.10
2023-06-30T12:50:33.548Z,64.40
2023-06-30T12:53:19.539Z,62.30
2023-06-30T12:56:05.595Z,61.40
2023-06-30T12:58:51.464Z,64.00
2023-06-30T13:01:37.312Z,64.40
2023-06-30T13:04:23.038Z,64.20
2023-06-30T13:07:11.636Z,63.30
2023-06-30T13:09:57.423Z,62.60
2023-06-30T13:12:43.394Z,62.60
2023-06-30T13:15:28.910Z,62.20
2023-06-30T13:18:16.038Z,62.70
2023-06-30T13:21:03.771Z,64.10
2023-06-30T13:23:49.124Z,63.20
2023-06-30T13:26:35.232Z,62.70
2023-06-30T13:29:21.440Z,64.80
2023-06-30T13:32:07.510Z,64.60
2023-06-30T13:34:53.446Z,63.60
2023-06-30T13:37:38.787Z,63.90
2023-06-30T13:40:24.077Z,64.30
2023-06-30T13:43:09.520Z,65.70
2023-06-30T13:45:55.508Z,64.80
2023-06-30T13:48:41.013Z,65.50
2023-06-30T13:51:26.373Z,66.50
2023-06-30T13:54:11.736Z,68.00
2023-06-30T13:56:57.191Z,68.20
2023-06-30T13:59:42.873Z,70.30
2023-06-30T14:02:28.338Z,70.30
2023-06-30T14:05:13.968Z,71.60
2023-06-30T14:07:59.754Z,71.60
2023-06-30T14:10:45.342Z,71.70
2023-06-30T14:13:31.118Z,70.00
2023-06-30T14:16:16.977Z,70.90
2023-06-30T14:19:02.542Z,71.10
2023-06-30T14:21:48.410Z,71.50
2023-06-30T14:24:33.809Z,72.30
2023-06-30T14:27:19.230Z,73.40
2023-06-30T14:30:05.570Z,73.90
2023-06-30T14:32:51.257Z,74.30
2023-06-30T14:35:36.791Z,74.10
2023-06-30T14:38:22.368Z,73.20
2023-06-30T14:41:08.028Z,72.10
2023-06-30T14:43:53.428Z,72.20
2023-06-30T14:46:38.837Z,71.30
2023-06-30T14:49:24.426Z,69.50
2023-06-30T14:52:10.233Z,68.30
2023-06-30T14:54:56.083Z,67.50
2023-06-30T14:57:42.319Z,66.60
2023-06-30T15:00:28.216Z,66.20
2023-06-30T15:03:14.328Z,66.20
2023-06-30T15:06:00.048Z,66.00
2023-06-30T15:08:45.511Z,65.50
2023-06-30T15:11:30.857Z,65.50
2023-06-30T15:14:16.270Z,65.50
2023-06-30T15:17:01.585Z,65.10
2023-06-30T15:19:48.694Z,64.70
2023-06-30T15:22:36.461Z,64.70
2023-06-30T15:25:31.319Z,64.30
2023-06-30T15:28:16.997Z,63.60
2023-06-30T15:31:02.865Z,63.70
2023-06-30T15:33:48.337Z,63.50
2023-06-30T15:36:34.269Z,63.00
2023-06-30T15:39:19.652Z,62.50
2023-06-30T15:42:06.040Z,62.10
2023-06-30T15:44:51.390Z,61.50
2023-06-30T15:47:37.051Z,61.90
2023-06-30T15:50:23.275Z,61.90
2023-06-30T15:53:09.421Z,61.90
2023-06-30T15:55:54.851Z,62.00
2023-06-30T15:58:41.372Z,61.40
2023-06-30T16:01:27.302Z,61.20
2023-06-30T16:04:13.242Z,61.20
2023-06-30T16:06:59.439Z,60.90
2023-06-30T16:09:44.869Z,61.00
2023-06-30T16:12:30.129Z,60.90
2023-06-30T16:15:15.997Z,61.00
2023-06-30T16:18:01.608Z,60.50
2023-06-30T16:20:48.099Z,60.60
2023-06-30T16:23:34.055Z,60.50
2023-06-30T16:26:19.522Z,60.20
2023-06-30T16:29:05.239Z,60.30
2023-06-30T16:31:50.649Z,60.20
2023-06-30T16:34:36.347Z,60.20
2023-06-30T16:37:21.998Z,60.30
2023-06-30T16:40:08.702Z,60.00
2023-06-30T16:42:54.265Z,60.20
2023-06-30T16:45:40.138Z,60.20
2023-06-30T16:48:25.494Z,60.40
2023-06-30T16:51:10.971Z,60.50
2023-06-30T16:53:56.564Z,60.60
2023-06-30T16:56:42.037Z,60.90
2023-06-30T16:59:27.428Z,60.90
2023-06-30T17:02:13.395Z,61.10
2023-06-30T17:04:59.237Z,61.10
2023-06-30T17:07:45.053Z,61.30
2023-06-30T17:10:30.655Z,61.40
2023-06-30T17:13:16.092Z,61.40
2023-06-30T17:16:01.556Z,61.40
2023-06-30T17:18:47.292Z,61.50
2023-06-30T17:21:33.010Z,61.70
2023-06-30T17:24:18.415Z,61.80
2023-06-30T17:27:04.538Z,61.80
2023-06-30T17:29:53.016Z,62.20
2023-06-30T17:32:39.664Z,62.80
2023-06-30T17:35:25.135Z,63.70
2023-06-30T17:38:10.676Z,64.70
2023-06-30T17:40:56.325Z,65.90
2023-06-30T17:43:42.085Z,66.00
2023-06-30T17:46:27.614Z,66.20
2023-06-30T17:49:29.700Z,66.30
2023-06-30T17:52:15.314Z,69.80
2023-06-30T17:55:01.153Z,67.30
2023-06-30T17:57:46.995Z,67.10
2023-06-30T18:00:32.336Z,67.70
2023-06-30T18:03:18.781Z,67.80
2023-06-30T18:06:04.678Z,68.20
2023-06-30T18:08:49.984Z,69.30
2023-06-30T18:11:35.327Z,69.90
2023-06-30T18:14:20.644Z,70.40
2023-06-30T18:17:06.723Z,69.90
2023-06-30T18:19:52.449Z,70.70
2023-06-30T18:22:37.944Z,70.90
2023-06-30T18:25:23.477Z,70.60
2023-06-30T18:28:08.946Z,71.10
2023-06-30T18:30:54.577Z,71.80
2023-06-30T18:33:39.932Z,71.60
2023-06-30T18:36:25.593Z,71.90
2023-06-30T18:39:13.629Z,72.30
2023-06-30T18:41:59.929Z,72.60
2023-06-30T18:44:45.509Z,72.60
2023-06-30T18:47:31.093Z,73.00
2023-06-30T18:50:16.452Z,73.40
2023-06-30T18:53:02.085Z,73.40
2023-06-30T18:55:48.222Z,73.70
2023-06-30T18:58:33.875Z,74.40
2023-06-30T19:01:19.882Z,74.10
2023-06-30T19:04:05.783Z,74.00
2023-06-30T19:06:51.923Z,73.70
2023-06-30T19:09:37.481Z,73.60
2023-06-30T19:12:22.855Z,73.80
2023-06-30T19:15:09.400Z,74.10
2023-06-30T19:17:54.769Z,74.10
2023-06-30T19:20:40.522Z,74.70
2023-06-30T19:23:26.053Z,75.00
2023-06-30T19:26:12.621Z,75.40
2023-06-30T19:28:58.307Z,75.30
2023-06-30T19:31:44.002Z,75.00
2023-06-30T19:34:29.747Z,75.20
2023-06-30T19:37:15.321Z,75.40
2023-06-30T19:40:00.638Z,75.40
2023-06-30T19:42:46.322Z,75.10
2023-06-30T19:45:31.842Z,75.30
2023-06-30T19:48:19.633Z,75.70
2023-06-30T19:51:05.526Z,75.80
2023-06-30T19:53:51.291Z,76.80
2023-06-30T19:56:36.806Z,76.40
2023-06-30T19:59:22.422Z,76.00
2023-06-30T20:02:08.259Z,76.20
2023-06-30T20:04:54.128Z,76.10
2023-06-30T20:07:40.919Z,75.80
2023-06-30T20:10:26.578Z,75.90
2023-06-30T20:13:12.196Z,76.20
2023-06-30T20:15:58.658Z,75.70
2023-06-30T20:18:44.111Z,75.90
2023-06-30T20:21:30.027Z,76.10
2023-06-30T20:24:15.536Z,76.00
2023-06-30T20:27:00.996Z,76.00
2023-06-30T20:29:47.086Z,76.50
2023-06-30T20:32:33.095Z,76.90
2023-06-30T20:35:18.758Z,77.10
2023-06-30T20:38:04.649Z,76.80
2023-06-30T20:40:50.318Z,76.30
2023-06-30T20:43:36.504Z,76.50
2023-06-30T20:46:22.172Z,76.80
2023-06-30T20:49:08.576Z,77.00
2023-06-30T20:51:55.316Z,76.90
2023-06-30T20:54:44.383Z,77.00
2023-06-30T20:57:29.645Z,77.30
2023-06-30T21:00:15.315Z,76.80
2023-06-30T21:03:01.353Z,77.20
2023-06-30T21:05:47.087Z,77.10
2023-06-30T21:08:32.579Z,77.00
2023-06-30T21:11:18.014Z,77.10
2023-06-30T21:14:05.666Z,77.80
2023-06-30T21:16:51.070Z,78.10
2023-06-30T21:19:37.116Z,77.60
2023-06-30T21:22:22.737Z,77.70
2023-06-30T21:25:08.256Z,78.20
2023-06-30T21:27:54.091Z,77.70
2023-06-30T21:30:39.486Z,77.40
2023-06-30T21:33:25.783Z,78.00
2023-06-30T21:36:11.349Z,78.10
2023-06-30T21:38:56.860Z,78.00
2023-06-30T21:41:42.712Z,78.00
2023-06-30T21:44:29.723Z,77.60
2023-06-30T21:47:15.594Z,78.30
2023-06-30T21:50:01.311Z,78.60
2023-06-30T21:52:46.492Z,78.80
2023-06-30T21:55:32.026Z,79.00
2023-06-30T21:58:26.890Z,78.60
2023-06-30T22:01:14.098Z,78.70
2023-06-30T22:03:59.939Z,78.30
2023-06-30T22:06:48.519Z,78.20
2023-06-30T22:09:34.392Z,78.40
2023-06-30T22:12:19.774Z,78.30
2023-06-30T22:15:06.791Z,78.20
2023-06-30T22:17:52.506Z,78.20
2023-06-30T22:20:38.162Z,78.80
2023-06-30T22:23:23.661Z,78.70
2023-06-30T22:26:09.062Z,79.00
2023-06-30T22:28:54.530Z,79.20
2023-06-30T22:31:40.126Z,78.90
2023-06-30T22:34:25.621Z,78.40
2023-06-30T22:37:12.324Z,78.00
2023-06-30T22:39:57.769Z,77.60
2023-06-30T22:42:43.547Z,78.00
2023-06-30T22:45:29.287Z,77.70
2023-06-30T22:48:14.933Z,77.80
2023-06-30T22:51:00.402Z,78.10
2023-06-30T22:53:46.311Z,78.50
2023-06-30T22:56:31.794Z,78.50
2023-06-30T22:59:18.349Z,78.30
2023-06-30T23:02:04.050Z,78.30
2023-06-30T23:04:49.803Z,80.30
2023-06-30T23:07:35.811Z,79.20
2023-06-30T23:10:22.343Z,78.60
2023-06-30T23:13:08.000Z,79.60
2023-06-30T23:15:53.334Z,79.50
2023-06-30T23:18:39.107Z,79.70
2023-06-30T23:21:24.868Z,79.80
2023-06-30T23:24:10.323Z,80.10
2023-06-30T23:26:56.116Z,80.20
2023-06-30T23:29:41.643Z,80.40
2023-06-30T23:32:27.291Z,79.00
2023-06-30T23:35:14.172Z,78.80
2023-06-30T23:37:59.726Z,80.40
2023-06-30T23:40:45.483Z,78.70
2023-06-30T23:43:30.930Z,78.60
2023-06-30T23:46:21.632Z,78.30
2023-06-30T23:49:07.380Z,78.80
2023-06-30T23:51:53.005Z,80.40
2023-06-30T23:54:38.453Z,81.30
2023-06-30T23:57:23.973Z,78.20
